sensor_id;sensor_type;location;lat;lon;timestamp;P1;durP1;ratioP1;P2;durP2;ratioP2
9834;SDS011;4956;50.996;13.716;2023-04-06T00:01:34;3.75;;;2.95;;
9834;SDS011;4956;50.996;13.716;2023-04-06T00:04:55;5.10;;;3.00;;
9834;SDS011;4956;50.996;13.716;2023-04-06T00:08:15;4.78;;;2.88;;
9834;SDS011;4956;50.996;13.716;2023-04-06T00:11:36;4.82;;;3.10;;
9834;SDS011;4956;50.996;13.716;2023-04-06T00:14:56;3.92;;;2.97;;
9834;SDS011;4956;50.996;13.716;2023-04-06T00:18:16;3.78;;;2.60;;
9834;SDS011;4956;50.996;13.716;2023-04-06T00:21:36;4.82;;;2.80;;
9834;SDS011;4956;50.996;13.716;2023-04-06T00:24:57;4.03;;;2.45;;
9834;SDS011;4956;50.996;13.716;2023-04-06T00:28:17;4.35;;;2.72;;
9834;SDS011;4956;50.996;13.716;2023-04-06T00:31:40;3.97;;;2.80;;
9834;SDS011;4956;50.996;13.716;2023-04-06T00:35:03;4.15;;;2.70;;
9834;SDS011;4956;50.996;13.716;2023-04-06T00:38:27;4.70;;;3.03;;
9834;SDS011;4956;50.996;13.716;2023-04-06T00:41:49;3.83;;;2.75;;
9834;SDS011;4956;50.996;13.716;2023-04-06T00:45:11;5.20;;;3.05;;
9834;SDS011;4956;50.996;13.716;2023-04-06T00:48:33;4.80;;;3.00;;
9834;SDS011;4956;50.996;13.716;2023-04-06T00:51:53;5.75;;;3.47;;
9834;SDS011;4956;50.996;13.716;2023-04-06T00:55:15;4.70;;;3.10;;
9834;SDS011;4956;50.996;13.716;2023-04-06T00:58:36;6.43;;;3.10;;
9834;SDS011;4956;50.996;13.716;2023-04-06T01:02:00;5.50;;;3.40;;
9834;SDS011;4956;50.996;13.716;2023-04-06T01:05:28;4.50;;;3.00;;
9834;SDS011;4956;50.996;13.716;2023-04-06T01:08:51;4.57;;;3.25;;
9834;SDS011;4956;50.996;13.716;2023-04-06T01:12:15;5.05;;;3.03;;
9834;SDS011;4956;50.996;13.716;2023-04-06T01:15:35;4.85;;;3.00;;
9834;SDS011;4956;50.996;13.716;2023-04-06T01:19:00;5.85;;;3.33;;
9834;SDS011;4956;50.996;13.716;2023-04-06T01:22:24;4.63;;;3.05;;
9834;SDS011;4956;50.996;13.716;2023-04-06T01:25:51;6.13;;;3.33;;
9834;SDS011;4956;50.996;13.716;2023-04-06T01:29:11;5.72;;;2.80;;
9834;SDS011;4956;50.996;13.716;2023-04-06T01:32:31;5.03;;;3.10;;
9834;SDS011;4956;50.996;13.716;2023-04-06T01:35:52;5.18;;;3.08;;
9834;SDS011;4956;50.996;13.716;2023-04-06T01:39:14;4.60;;;3.03;;
9834;SDS011;4956;50.996;13.716;2023-04-06T01:42:34;5.70;;;3.30;;
9834;SDS011;4956;50.996;13.716;2023-04-06T01:45:55;4.50;;;2.92;;
9834;SDS011;4956;50.996;13.716;2023-04-06T01:49:17;5.97;;;3.05;;
9834;SDS011;4956;50.996;13.716;2023-04-06T01:52:41;4.45;;;3.17;;
9834;SDS011;4956;50.996;13.716;2023-04-06T01:56:04;4.63;;;3.58;;
9834;SDS011;4956;50.996;13.716;2023-04-06T01:59:29;5.40;;;3.80;;
9834;SDS011;4956;50.996;13.716;2023-04-06T02:02:50;6.05;;;3.95;;
9834;SDS011;4956;50.996;13.716;2023-04-06T02:06:16;5.05;;;3.92;;
9834;SDS011;4956;50.996;13.716;2023-04-06T02:09:36;6.68;;;4.07;;
9834;SDS011;4956;50.996;13.716;2023-04-06T02:13:00;5.97;;;4.10;;
9834;SDS011;4956;50.996;13.716;2023-04-06T02:16:21;5.10;;;3.50;;
9834;SDS011;4956;50.996;13.716;2023-04-06T02:19:42;5.60;;;3.63;;
9834;SDS011;4956;50.996;13.716;2023-04-06T02:23:02;5.75;;;3.63;;
9834;SDS011;4956;50.996;13.716;2023-04-06T02:26:22;5.70;;;3.88;;
9834;SDS011;4956;50.996;13.716;2023-04-06T02:29:43;5.70;;;4.05;;
9834;SDS011;4956;50.996;13.716;2023-04-06T02:33:03;4.75;;;3.60;;
9834;SDS011;4956;50.996;13.716;2023-04-06T02:36:32;6.03;;;3.53;;
9834;SDS011;4956;50.996;13.716;2023-04-06T02:39:53;5.10;;;3.38;;
9834;SDS011;4956;50.996;13.716;2023-04-06T02:43:15;4.05;;;3.13;;
9834;SDS011;4956;50.996;13.716;2023-04-06T02:46:37;6.30;;;3.30;;
9834;SDS011;4956;50.996;13.716;2023-04-06T02:49:57;4.50;;;3.15;;
9834;SDS011;4956;50.996;13.716;2023-04-06T02:53:18;5.18;;;3.30;;
9834;SDS011;4956;50.996;13.716;2023-04-06T02:56:38;5.05;;;3.30;;
9834;SDS011;4956;50.996;13.716;2023-04-06T02:59:59;6.65;;;3.53;;
9834;SDS011;4956;50.996;13.716;2023-04-06T03:03:28;9.02;;;3.90;;
9834;SDS011;4956;50.996;13.716;2023-04-06T03:06:49;6.82;;;3.85;;
9834;SDS011;4956;50.996;13.716;2023-04-06T03:10:18;6.05;;;3.60;;
9834;SDS011;4956;50.996;13.716;2023-04-06T03:13:40;5.35;;;3.33;;
9834;SDS011;4956;50.996;13.716;2023-04-06T03:17:01;6.45;;;3.58;;
9834;SDS011;4956;50.996;13.716;2023-04-06T03:20:22;3.95;;;3.13;;
9834;SDS011;4956;50.996;13.716;2023-04-06T03:23:43;5.00;;;3.25;;
9834;SDS011;4956;50.996;13.716;2023-04-06T03:27:04;5.65;;;3.55;;
9834;SDS011;4956;50.996;13.716;2023-04-06T03:30:26;4.65;;;3.20;;
9834;SDS011;4956;50.996;13.716;2023-04-06T03:33:47;6.07;;;3.67;;
9834;SDS011;4956;50.996;13.716;2023-04-06T03:37:14;5.80;;;3.70;;
9834;SDS011;4956;50.996;13.716;2023-04-06T03:40:40;5.32;;;3.45;;
9834;SDS011;4956;50.996;13.716;2023-04-06T03:44:02;4.63;;;3.33;;
9834;SDS011;4956;50.996;13.716;2023-04-06T03:47:22;6.15;;;3.42;;
9834;SDS011;4956;50.996;13.716;2023-04-06T03:50:44;5.53;;;3.40;;
9834;SDS011;4956;50.996;13.716;2023-04-06T03:54:04;6.50;;;3.95;;
9834;SDS011;4956;50.996;13.716;2023-04-06T03:57:25;7.85;;;3.85;;
9834;SDS011;4956;50.996;13.716;2023-04-06T04:00:45;4.68;;;3.80;;
9834;SDS011;4956;50.996;13.716;2023-04-06T04:04:05;6.07;;;3.90;;
9834;SDS011;4956;50.996;13.716;2023-04-06T04:07:26;5.47;;;3.70;;
9834;SDS011;4956;50.996;13.716;2023-04-06T04:10:46;5.72;;;3.80;;
9834;SDS011;4956;50.996;13.716;2023-04-06T04:14:07;7.78;;;3.90;;
9834;SDS011;4956;50.996;13.716;2023-04-06T04:17:27;6.07;;;3.92;;
9834;SDS011;4956;50.996;13.716;2023-04-06T04:20:47;6.95;;;4.47;;
9834;SDS011;4956;50.996;13.716;2023-04-06T04:24:07;6.38;;;3.92;;
9834;SDS011;4956;50.996;13.716;2023-04-06T04:27:29;8.13;;;4.55;;
9834;SDS011;4956;50.996;13.716;2023-04-06T04:30:50;7.15;;;3.95;;
9834;SDS011;4956;50.996;13.716;2023-04-06T04:34:10;6.05;;;3.83;;
9834;SDS011;4956;50.996;13.716;2023-04-06T04:37:33;5.90;;;4.40;;
9834;SDS011;4956;50.996;13.716;2023-04-06T04:40:57;6.78;;;4.57;;
9834;SDS011;4956;50.996;13.716;2023-04-06T04:44:17;5.75;;;3.90;;
9834;SDS011;4956;50.996;13.716;2023-04-06T04:47:38;7.30;;;4.72;;
9834;SDS011;4956;50.996;13.716;2023-04-06T04:51:00;7.07;;;4.68;;
9834;SDS011;4956;50.996;13.716;2023-04-06T04:54:28;9.00;;;5.28;;
9834;SDS011;4956;50.996;13.716;2023-04-06T04:57:52;9.10;;;5.20;;
9834;SDS011;4956;50.996;13.716;2023-04-06T05:01:43;9.15;;;4.93;;
9834;SDS011;4956;50.996;13.716;2023-04-06T05:05:04;8.30;;;4.60;;
9834;SDS011;4956;50.996;13.716;2023-04-06T05:08:25;8.10;;;4.85;;
9834;SDS011;4956;50.996;13.716;2023-04-06T05:11:45;8.48;;;4.63;;
9834;SDS011;4956;50.996;13.716;2023-04-06T05:15:06;8.32;;;4.60;;
9834;SDS011;4956;50.996;13.716;2023-04-06T05:18:26;6.97;;;4.07;;
9834;SDS011;4956;50.996;13.716;2023-04-06T05:21:48;6.00;;;4.00;;
9834;SDS011;4956;50.996;13.716;2023-04-06T05:25:08;6.43;;;3.97;;
9834;SDS011;4956;50.996;13.716;2023-04-06T05:28:29;7.30;;;4.93;;
9834;SDS011;4956;50.996;13.716;2023-04-06T05:31:50;8.10;;;4.43;;
9834;SDS011;4956;50.996;13.716;2023-04-06T05:35:11;5.65;;;4.07;;
9834;SDS011;4956;50.996;13.716;2023-04-06T05:38:33;7.50;;;4.78;;
9834;SDS011;4956;50.996;13.716;2023-04-06T05:42:03;6.22;;;4.25;;
9834;SDS011;4956;50.996;13.716;2023-04-06T05:45:37;5.97;;;4.53;;
9834;SDS011;4956;50.996;13.716;2023-04-06T05:48:59;6.25;;;4.50;;
9834;SDS011;4956;50.996;13.716;2023-04-06T05:52:24;6.57;;;4.63;;
9834;SDS011;4956;50.996;13.716;2023-04-06T05:55:44;10.02;;;4.93;;
9834;SDS011;4956;50.996;13.716;2023-04-06T05:59:10;7.82;;;4.50;;
9834;SDS011;4956;50.996;13.716;2023-04-06T06:02:30;8.65;;;4.45;;
9834;SDS011;4956;50.996;13.716;2023-04-06T06:05:51;8.63;;;5.60;;
9834;SDS011;4956;50.996;13.716;2023-04-06T06:09:19;10.05;;;5.30;;
9834;SDS011;4956;50.996;13.716;2023-04-06T06:13:06;5.45;;;4.43;;
9834;SDS011;4956;50.996;13.716;2023-04-06T06:16:27;7.60;;;5.57;;
9834;SDS011;4956;50.996;13.716;2023-04-06T06:19:47;6.30;;;4.15;;
9834;SDS011;4956;50.996;13.716;2023-04-06T06:23:07;5.90;;;4.20;;
9834;SDS011;4956;50.996;13.716;2023-04-06T06:26:29;7.60;;;5.00;;
9834;SDS011;4956;50.996;13.716;2023-04-06T06:29:50;7.70;;;4.47;;
9834;SDS011;4956;50.996;13.716;2023-04-06T06:33:11;7.85;;;4.72;;
9834;SDS011;4956;50.996;13.716;2023-04-06T06:36:32;7.88;;;4.60;;
9834;SDS011;4956;50.996;13.716;2023-04-06T06:39:52;6.45;;;4.60;;
9834;SDS011;4956;50.996;13.716;2023-04-06T06:43:14;7.20;;;4.47;;
9834;SDS011;4956;50.996;13.716;2023-04-06T06:46:47;6.57;;;4.43;;
9834;SDS011;4956;50.996;13.716;2023-04-06T06:50:07;5.50;;;4.10;;
9834;SDS011;4956;50.996;13.716;2023-04-06T06:53:28;6.47;;;4.85;;
9834;SDS011;4956;50.996;13.716;2023-04-06T06:56:49;5.45;;;4.13;;
9834;SDS011;4956;50.996;13.716;2023-04-06T07:00:10;7.25;;;4.50;;
9834;SDS011;4956;50.996;13.716;2023-04-06T07:03:32;9.40;;;5.28;;
9834;SDS011;4956;50.996;13.716;2023-04-06T07:06:53;6.22;;;4.43;;
9834;SDS011;4956;50.996;13.716;2023-04-06T07:10:13;10.13;;;5.28;;
9834;SDS011;4956;50.996;13.716;2023-04-06T07:13:34;7.57;;;5.35;;
9834;SDS011;4956;50.996;13.716;2023-04-06T07:16:55;7.38;;;4.82;;
9834;SDS011;4956;50.996;13.716;2023-04-06T07:20:16;7.78;;;5.32;;
9834;SDS011;4956;50.996;13.716;2023-04-06T07:23:36;7.43;;;4.55;;
9834;SDS011;4956;50.996;13.716;2023-04-06T07:26:58;7.55;;;5.13;;
9834;SDS011;4956;50.996;13.716;2023-04-06T07:30:19;6.32;;;5.03;;
9834;SDS011;4956;50.996;13.716;2023-04-06T07:33:39;7.10;;;5.20;;
9834;SDS011;4956;50.996;13.716;2023-04-06T07:37:00;7.10;;;5.22;;
9834;SDS011;4956;50.996;13.716;2023-04-06T07:40:21;7.47;;;4.95;;
9834;SDS011;4956;50.996;13.716;2023-04-06T07:43:42;6.90;;;5.45;;
9834;SDS011;4956;50.996;13.716;2023-04-06T07:47:03;9.15;;;5.85;;
9834;SDS011;4956;50.996;13.716;2023-04-06T07:50:23;7.60;;;5.43;;
9834;SDS011;4956;50.996;13.716;2023-04-06T07:53:44;8.23;;;5.38;;
9834;SDS011;4956;50.996;13.716;2023-04-06T07:57:04;10.48;;;5.68;;
9834;SDS011;4956;50.996;13.716;2023-04-06T08:00:25;9.43;;;5.72;;
9834;SDS011;4956;50.996;13.716;2023-04-06T08:03:45;7.60;;;5.60;;
9834;SDS011;4956;50.996;13.716;2023-04-06T08:07:05;6.82;;;4.88;;
9834;SDS011;4956;50.996;13.716;2023-04-06T08:10:26;7.88;;;5.47;;
9834;SDS011;4956;50.996;13.716;2023-04-06T08:13:47;8.70;;;5.65;;
9834;SDS011;4956;50.996;13.716;2023-04-06T08:17:07;7.63;;;5.17;;
9834;SDS011;4956;50.996;13.716;2023-04-06T08:20:27;8.40;;;5.60;;
9834;SDS011;4956;50.996;13.716;2023-04-06T08:23:47;8.10;;;5.30;;
9834;SDS011;4956;50.996;13.716;2023-04-06T08:27:08;7.85;;;5.60;;
9834;SDS011;4956;50.996;13.716;2023-04-06T08:30:28;7.75;;;5.63;;
9834;SDS011;4956;50.996;13.716;2023-04-06T08:33:49;7.85;;;5.65;;
9834;SDS011;4956;50.996;13.716;2023-04-06T08:37:09;8.32;;;5.65;;
9834;SDS011;4956;50.996;13.716;2023-04-06T08:40:29;7.20;;;5.25;;
9834;SDS011;4956;50.996;13.716;2023-04-06T08:43:52;12.73;;;8.18;;
9834;SDS011;4956;50.996;13.716;2023-04-06T08:47:15;9.52;;;6.40;;
9834;SDS011;4956;50.996;13.716;2023-04-06T08:50:35;6.25;;;4.72;;
9834;SDS011;4956;50.996;13.716;2023-04-06T08:53:57;8.00;;;5.40;;
9834;SDS011;4956;50.996;13.716;2023-04-06T08:57:18;7.57;;;5.85;;
9834;SDS011;4956;50.996;13.716;2023-04-06T09:00:38;9.68;;;6.18;;
9834;SDS011;4956;50.996;13.716;2023-04-06T09:03:59;7.40;;;4.82;;
9834;SDS011;4956;50.996;13.716;2023-04-06T09:07:20;9.07;;;5.18;;
9834;SDS011;4956;50.996;13.716;2023-04-06T09:10:41;6.90;;;5.30;;
9834;SDS011;4956;50.996;13.716;2023-04-06T09:14:01;5.68;;;4.60;;
9834;SDS011;4956;50.996;13.716;2023-04-06T09:17:28;6.78;;;5.05;;
9834;SDS011;4956;50.996;13.716;2023-04-06T09:20:56;7.72;;;5.22;;
9834;SDS011;4956;50.996;13.716;2023-04-06T09:24:20;7.07;;;5.53;;
9834;SDS011;4956;50.996;13.716;2023-04-06T09:27:46;6.68;;;4.50;;
9834;SDS011;4956;50.996;13.716;2023-04-06T09:31:06;6.70;;;4.65;;
9834;SDS011;4956;50.996;13.716;2023-04-06T09:34:26;7.30;;;4.65;;
9834;SDS011;4956;50.996;13.716;2023-04-06T09:37:47;5.60;;;4.57;;
9834;SDS011;4956;50.996;13.716;2023-04-06T09:41:08;6.88;;;5.00;;
9834;SDS011;4956;50.996;13.716;2023-04-06T09:44:29;5.32;;;4.50;;
9834;SDS011;4956;50.996;13.716;2023-04-06T09:47:50;8.02;;;5.07;;
9834;SDS011;4956;50.996;13.716;2023-04-06T09:51:13;7.80;;;4.38;;
9834;SDS011;4956;50.996;13.716;2023-04-06T09:54:35;7.07;;;5.68;;
9834;SDS011;4956;50.996;13.716;2023-04-06T09:58:13;5.88;;;4.22;;
9834;SDS011;4956;50.996;13.716;2023-04-06T10:01:39;7.03;;;4.78;;
9834;SDS011;4956;50.996;13.716;2023-04-06T10:05:01;7.13;;;4.60;;
9834;SDS011;4956;50.996;13.716;2023-04-06T10:08:23;5.20;;;4.13;;
9834;SDS011;4956;50.996;13.716;2023-04-06T10:11:45;7.40;;;4.15;;
9834;SDS011;4956;50.996;13.716;2023-04-06T10:15:06;6.20;;;4.70;;
9834;SDS011;4956;50.996;13.716;2023-04-06T10:18:27;4.60;;;4.00;;
9834;SDS011;4956;50.996;13.716;2023-04-06T10:21:48;4.60;;;4.10;;
9834;SDS011;4956;50.996;13.716;2023-04-06T10:25:11;6.88;;;4.38;;
9834;SDS011;4956;50.996;13.716;2023-04-06T10:28:32;7.75;;;4.90;;
9834;SDS011;4956;50.996;13.716;2023-04-06T10:31:55;6.57;;;4.60;;
9834;SDS011;4956;50.996;13.716;2023-04-06T10:35:18;6.05;;;4.47;;
9834;SDS011;4956;50.996;13.716;2023-04-06T10:38:39;5.75;;;4.28;;
9834;SDS011;4956;50.996;13.716;2023-04-06T10:42:05;5.53;;;4.70;;
9834;SDS011;4956;50.996;13.716;2023-04-06T10:45:26;6.25;;;4.82;;
9834;SDS011;4956;50.996;13.716;2023-04-06T10:48:51;5.07;;;4.30;;
9834;SDS011;4956;50.996;13.716;2023-04-06T10:52:11;7.03;;;4.40;;
9834;SDS011;4956;50.996;13.716;2023-04-06T10:55:32;4.40;;;3.95;;
9834;SDS011;4956;50.996;13.716;2023-04-06T10:58:53;5.13;;;4.07;;
9834;SDS011;4956;50.996;13.716;2023-04-06T11:02:19;5.57;;;4.13;;
9834;SDS011;4956;50.996;13.716;2023-04-06T11:05:47;6.78;;;4.30;;
9834;SDS011;4956;50.996;13.716;2023-04-06T11:09:09;6.00;;;4.00;;
9834;SDS011;4956;50.996;13.716;2023-04-06T11:12:29;7.25;;;4.80;;
9834;SDS011;4956;50.996;13.716;2023-04-06T11:15:50;6.63;;;4.40;;
9834;SDS011;4956;50.996;13.716;2023-04-06T11:19:11;4.73;;;4.23;;
9834;SDS011;4956;50.996;13.716;2023-04-06T11:22:32;5.88;;;4.57;;
9834;SDS011;4956;50.996;13.716;2023-04-06T11:25:53;5.35;;;4.72;;
9834;SDS011;4956;50.996;13.716;2023-04-06T11:29:17;6.43;;;4.80;;
9834;SDS011;4956;50.996;13.716;2023-04-06T11:32:42;5.20;;;4.50;;
9834;SDS011;4956;50.996;13.716;2023-04-06T11:36:04;5.45;;;4.45;;
9834;SDS011;4956;50.996;13.716;2023-04-06T11:39:26;5.63;;;4.50;;
9834;SDS011;4956;50.996;13.716;2023-04-06T11:42:53;6.40;;;4.45;;
9834;SDS011;4956;50.996;13.716;2023-04-06T11:46:17;4.65;;;3.97;;
9834;SDS011;4956;50.996;13.716;2023-04-06T11:49:40;6.63;;;3.95;;
9834;SDS011;4956;50.996;13.716;2023-04-06T11:53:01;4.75;;;4.28;;
9834;SDS011;4956;50.996;13.716;2023-04-06T11:56:25;5.07;;;4.60;;
9834;SDS011;4956;50.996;13.716;2023-04-06T11:59:48;5.53;;;4.30;;
9834;SDS011;4956;50.996;13.716;2023-04-06T12:03:09;5.40;;;3.53;;
9834;SDS011;4956;50.996;13.716;2023-04-06T12:06:29;5.35;;;4.40;;
9834;SDS011;4956;50.996;13.716;2023-04-06T12:09:50;5.45;;;4.13;;
9834;SDS011;4956;50.996;13.716;2023-04-06T12:13:10;4.32;;;3.78;;
9834;SDS011;4956;50.996;13.716;2023-04-06T12:16:30;7.38;;;4.30;;
9834;SDS011;4956;50.996;13.716;2023-04-06T12:19:51;5.97;;;4.80;;
9834;SDS011;4956;50.996;13.716;2023-04-06T12:23:11;5.95;;;5.03;;
9834;SDS011;4956;50.996;13.716;2023-04-06T12:26:32;6.20;;;4.47;;
9834;SDS011;4956;50.996;13.716;2023-04-06T12:29:53;5.45;;;4.68;;
9834;SDS011;4956;50.996;13.716;2023-04-06T12:33:13;6.00;;;4.28;;
9834;SDS011;4956;50.996;13.716;2023-04-06T12:36:33;6.30;;;4.72;;
9834;SDS011;4956;50.996;13.716;2023-04-06T12:39:54;5.65;;;4.25;;
9834;SDS011;4956;50.996;13.716;2023-04-06T12:43:14;5.80;;;4.35;;
9834;SDS011;4956;50.996;13.716;2023-04-06T12:46:35;6.57;;;4.68;;
9834;SDS011;4956;50.996;13.716;2023-04-06T12:49:56;5.90;;;4.40;;
9834;SDS011;4956;50.996;13.716;2023-04-06T12:53:16;9.35;;;4.63;;
9834;SDS011;4956;50.996;13.716;2023-04-06T12:56:36;4.80;;;4.10;;
9834;SDS011;4956;50.996;13.716;2023-04-06T12:59:57;6.72;;;4.22;;
9834;SDS011;4956;50.996;13.716;2023-04-06T13:03:20;5.13;;;4.47;;
9834;SDS011;4956;50.996;13.716;2023-04-06T13:06:42;6.70;;;4.40;;
9834;SDS011;4956;50.996;13.716;2023-04-06T13:10:02;6.53;;;5.07;;
9834;SDS011;4956;50.996;13.716;2023-04-06T13:13:23;5.47;;;4.55;;
9834;SDS011;4956;50.996;13.716;2023-04-06T13:16:45;4.57;;;4.00;;
9834;SDS011;4956;50.996;13.716;2023-04-06T13:20:06;9.05;;;4.47;;
9834;SDS011;4956;50.996;13.716;2023-04-06T13:23:26;4.25;;;3.85;;
9834;SDS011;4956;50.996;13.716;2023-04-06T13:26:47;7.83;;;4.90;;
9834;SDS011;4956;50.996;13.716;2023-04-06T13:30:07;5.32;;;4.15;;
9834;SDS011;4956;50.996;13.716;2023-04-06T13:33:28;5.45;;;4.70;;
9834;SDS011;4956;50.996;13.716;2023-04-06T13:36:49;6.65;;;4.55;;
9834;SDS011;4956;50.996;13.716;2023-04-06T13:40:12;4.72;;;3.83;;
9834;SDS011;4956;50.996;13.716;2023-04-06T13:43:32;6.93;;;4.63;;
9834;SDS011;4956;50.996;13.716;2023-04-06T13:46:53;5.55;;;4.57;;
9834;SDS011;4956;50.996;13.716;2023-04-06T13:50:13;6.55;;;4.10;;
9834;SDS011;4956;50.996;13.716;2023-04-06T13:53:33;4.23;;;3.83;;
9834;SDS011;4956;50.996;13.716;2023-04-06T13:56:54;5.20;;;4.63;;
9834;SDS011;4956;50.996;13.716;2023-04-06T14:00:15;6.30;;;4.70;;
9834;SDS011;4956;50.996;13.716;2023-04-06T14:03:35;9.57;;;6.43;;
9834;SDS011;4956;50.996;13.716;2023-04-06T14:06:56;6.85;;;4.30;;
9834;SDS011;4956;50.996;13.716;2023-04-06T14:10:17;5.70;;;4.53;;
9834;SDS011;4956;50.996;13.716;2023-04-06T14:13:38;5.32;;;4.47;;
9834;SDS011;4956;50.996;13.716;2023-04-06T14:16:58;4.47;;;4.05;;
9834;SDS011;4956;50.996;13.716;2023-04-06T14:20:19;5.60;;;4.53;;
9834;SDS011;4956;50.996;13.716;2023-04-06T14:23:39;5.40;;;4.30;;
9834;SDS011;4956;50.996;13.716;2023-04-06T14:27:00;5.18;;;4.50;;
9834;SDS011;4956;50.996;13.716;2023-04-06T14:30:21;6.18;;;4.10;;
9834;SDS011;4956;50.996;13.716;2023-04-06T14:33:41;5.18;;;4.30;;
9834;SDS011;4956;50.996;13.716;2023-04-06T14:37:02;6.53;;;4.82;;
9834;SDS011;4956;50.996;13.716;2023-04-06T14:40:22;5.45;;;4.65;;
9834;SDS011;4956;50.996;13.716;2023-04-06T14:43:42;5.37;;;4.40;;
9834;SDS011;4956;50.996;13.716;2023-04-06T14:47:05;8.52;;;4.85;;
9834;SDS011;4956;50.996;13.716;2023-04-06T14:50:25;6.28;;;5.00;;
9834;SDS011;4956;50.996;13.716;2023-04-06T14:53:46;5.38;;;4.45;;
9834;SDS011;4956;50.996;13.716;2023-04-06T14:57:06;6.95;;;5.22;;
9834;SDS011;4956;50.996;13.716;2023-04-06T15:00:26;7.70;;;4.70;;
9834;SDS011;4956;50.996;13.716;2023-04-06T15:03:47;4.53;;;3.97;;
9834;SDS011;4956;50.996;13.716;2023-04-06T15:07:07;5.25;;;3.95;;
9834;SDS011;4956;50.996;13.716;2023-04-06T15:10:27;4.20;;;3.70;;
9834;SDS011;4956;50.996;13.716;2023-04-06T15:13:47;5.03;;;4.00;;
9834;SDS011;4956;50.996;13.716;2023-04-06T15:17:08;3.95;;;3.55;;
9834;SDS011;4956;50.996;13.716;2023-04-06T15:20:28;4.77;;;4.30;;
9834;SDS011;4956;50.996;13.716;2023-04-06T15:23:49;6.53;;;4.70;;
9834;SDS011;4956;50.996;13.716;2023-04-06T15:27:10;6.72;;;4.80;;
9834;SDS011;4956;50.996;13.716;2023-04-06T15:30:30;5.70;;;4.25;;
9834;SDS011;4956;50.996;13.716;2023-04-06T15:33:50;6.30;;;4.53;;
9834;SDS011;4956;50.996;13.716;2023-04-06T15:37:14;6.05;;;4.30;;
9834;SDS011;4956;50.996;13.716;2023-04-06T15:40:34;5.13;;;3.75;;
9834;SDS011;4956;50.996;13.716;2023-04-06T15:43:56;5.75;;;4.10;;
9834;SDS011;4956;50.996;13.716;2023-04-06T15:47:16;5.85;;;4.35;;
9834;SDS011;4956;50.996;13.716;2023-04-06T15:50:36;5.70;;;4.07;;
9834;SDS011;4956;50.996;13.716;2023-04-06T15:53:57;6.57;;;4.30;;
9834;SDS011;4956;50.996;13.716;2023-04-06T15:57:17;6.63;;;3.97;;
9834;SDS011;4956;50.996;13.716;2023-04-06T16:00:37;4.07;;;3.45;;
9834;SDS011;4956;50.996;13.716;2023-04-06T16:03:58;4.32;;;3.60;;
9834;SDS011;4956;50.996;13.716;2023-04-06T16:07:18;5.88;;;4.35;;
9834;SDS011;4956;50.996;13.716;2023-04-06T16:10:39;5.23;;;4.00;;
9834;SDS011;4956;50.996;13.716;2023-04-06T16:14:00;5.55;;;3.95;;
9834;SDS011;4956;50.996;13.716;2023-04-06T16:17:20;4.47;;;3.60;;
9834;SDS011;4956;50.996;13.716;2023-04-06T16:20:40;5.10;;;3.60;;
9834;SDS011;4956;50.996;13.716;2023-04-06T16:24:01;4.47;;;3.28;;
9834;SDS011;4956;50.996;13.716;2023-04-06T16:27:21;6.70;;;3.67;;
9834;SDS011;4956;50.996;13.716;2023-04-06T16:30:41;5.75;;;4.07;;
9834;SDS011;4956;50.996;13.716;2023-04-06T16:34:02;4.72;;;3.65;;
9834;SDS011;4956;50.996;13.716;2023-04-06T16:37:22;5.25;;;3.58;;
9834;SDS011;4956;50.996;13.716;2023-04-06T16:40:42;4.90;;;3.65;;
9834;SDS011;4956;50.996;13.716;2023-04-06T16:44:03;4.50;;;3.60;;
9834;SDS011;4956;50.996;13.716;2023-04-06T16:47:23;5.15;;;3.58;;
9834;SDS011;4956;50.996;13.716;2023-04-06T16:50:43;5.35;;;3.70;;
9834;SDS011;4956;50.996;13.716;2023-04-06T16:54:05;4.10;;;3.53;;
9834;SDS011;4956;50.996;13.716;2023-04-06T16:57:25;6.05;;;4.07;;
9834;SDS011;4956;50.996;13.716;2023-04-06T17:00:48;5.30;;;3.70;;
9834;SDS011;4956;50.996;13.716;2023-04-06T17:04:08;4.88;;;3.85;;
9834;SDS011;4956;50.996;13.716;2023-04-06T17:07:29;7.57;;;3.70;;
9834;SDS011;4956;50.996;13.716;2023-04-06T17:10:51;4.47;;;3.60;;
9834;SDS011;4956;50.996;13.716;2023-04-06T17:14:12;5.05;;;3.80;;
9834;SDS011;4956;50.996;13.716;2023-04-06T17:17:32;5.95;;;4.22;;
9834;SDS011;4956;50.996;13.716;2023-04-06T17:20:52;5.35;;;3.95;;
9834;SDS011;4956;50.996;13.716;2023-04-06T17:24:13;5.80;;;3.70;;
9834;SDS011;4956;50.996;13.716;2023-04-06T17:27:33;5.80;;;3.78;;
9834;SDS011;4956;50.996;13.716;2023-04-06T17:30:53;6.28;;;4.10;;
9834;SDS011;4956;50.996;13.716;2023-04-06T17:34:14;5.00;;;4.07;;
9834;SDS011;4956;50.996;13.716;2023-04-06T17:37:34;9.18;;;5.60;;
9834;SDS011;4956;50.996;13.716;2023-04-06T17:40:55;11.60;;;7.32;;
9834;SDS011;4956;50.996;13.716;2023-04-06T17:44:15;7.65;;;5.85;;
9834;SDS011;4956;50.996;13.716;2023-04-06T17:47:35;6.00;;;4.53;;
9834;SDS011;4956;50.996;13.716;2023-04-06T17:50:56;7.53;;;5.32;;
9834;SDS011;4956;50.996;13.716;2023-04-06T17:54:16;9.93;;;7.30;;
9834;SDS011;4956;50.996;13.716;2023-04-06T17:57:36;14.70;;;9.77;;
9834;SDS011;4956;50.996;13.716;2023-04-06T18:00:57;8.75;;;6.07;;
9834;SDS011;4956;50.996;13.716;2023-04-06T18:04:17;5.20;;;4.03;;
9834;SDS011;4956;50.996;13.716;2023-04-06T18:07:37;4.95;;;3.65;;
9834;SDS011;4956;50.996;13.716;2023-04-06T18:10:58;4.53;;;3.47;;
9834;SDS011;4956;50.996;13.716;2023-04-06T18:14:20;5.57;;;3.65;;
9834;SDS011;4956;50.996;13.716;2023-04-06T18:17:40;5.50;;;3.80;;
9834;SDS011;4956;50.996;13.716;2023-04-06T18:21:04;4.75;;;3.75;;
9834;SDS011;4956;50.996;13.716;2023-04-06T18:24:25;6.00;;;4.15;;
9834;SDS011;4956;50.996;13.716;2023-04-06T18:27:45;8.00;;;5.47;;
9834;SDS011;4956;50.996;13.716;2023-04-06T18:31:05;6.85;;;4.78;;
9834;SDS011;4956;50.996;13.716;2023-04-06T18:34:26;6.03;;;4.33;;
9834;SDS011;4956;50.996;13.716;2023-04-06T18:37:46;19.35;;;11.80;;
9834;SDS011;4956;50.996;13.716;2023-04-06T18:41:06;12.50;;;9.10;;
9834;SDS011;4956;50.996;13.716;2023-04-06T18:44:26;7.53;;;4.85;;
9834;SDS011;4956;50.996;13.716;2023-04-06T18:47:47;5.35;;;4.82;;
9834;SDS011;4956;50.996;13.716;2023-04-06T18:51:07;6.20;;;4.63;;
9834;SDS011;4956;50.996;13.716;2023-04-06T18:54:28;5.55;;;4.60;;
9834;SDS011;4956;50.996;13.716;2023-04-06T18:57:48;5.97;;;3.90;;
9834;SDS011;4956;50.996;13.716;2023-04-06T19:01:08;7.28;;;4.90;;
9834;SDS011;4956;50.996;13.716;2023-04-06T19:04:29;5.57;;;4.83;;
9834;SDS011;4956;50.996;13.716;2023-04-06T19:07:49;6.55;;;4.50;;
9834;SDS011;4956;50.996;13.716;2023-04-06T19:11:11;7.00;;;4.80;;
9834;SDS011;4956;50.996;13.716;2023-04-06T19:14:31;5.45;;;4.82;;
9834;SDS011;4956;50.996;13.716;2023-04-06T19:17:52;6.35;;;5.13;;
9834;SDS011;4956;50.996;13.716;2023-04-06T19:21:38;7.43;;;5.30;;
9834;SDS011;4956;50.996;13.716;2023-04-06T19:25:23;9.15;;;6.13;;
9834;SDS011;4956;50.996;13.716;2023-04-06T19:29:09;9.20;;;6.78;;
9834;SDS011;4956;50.996;13.716;2023-04-06T19:32:55;9.10;;;6.25;;
9834;SDS011;4956;50.996;13.716;2023-04-06T19:36:16;10.65;;;6.90;;
9834;SDS011;4956;50.996;13.716;2023-04-06T19:39:36;9.75;;;7.55;;
9834;SDS011;4956;50.996;13.716;2023-04-06T19:42:57;10.07;;;7.60;;
9834;SDS011;4956;50.996;13.716;2023-04-06T19:46:17;9.00;;;6.05;;
9834;SDS011;4956;50.996;13.716;2023-04-06T19:49:37;6.60;;;5.40;;
9834;SDS011;4956;50.996;13.716;2023-04-06T19:52:59;6.65;;;5.10;;
9834;SDS011;4956;50.996;13.716;2023-04-06T19:56:21;7.32;;;5.40;;
9834;SDS011;4956;50.996;13.716;2023-04-06T19:59:42;6.18;;;5.07;;
9834;SDS011;4956;50.996;13.716;2023-04-06T20:03:02;7.63;;;5.93;;
9834;SDS011;4956;50.996;13.716;2023-04-06T20:06:22;8.15;;;5.63;;
9834;SDS011;4956;50.996;13.716;2023-04-06T20:09:43;8.52;;;5.65;;
9834;SDS011;4956;50.996;13.716;2023-04-06T20:13:03;6.97;;;5.93;;
9834;SDS011;4956;50.996;13.716;2023-04-06T20:16:23;7.82;;;6.00;;
9834;SDS011;4956;50.996;13.716;2023-04-06T20:19:44;6.65;;;5.63;;
9834;SDS011;4956;50.996;13.716;2023-04-06T20:23:04;9.05;;;6.85;;
9834;SDS011;4956;50.996;13.716;2023-04-06T20:26:24;9.18;;;5.80;;
9834;SDS011;4956;50.996;13.716;2023-04-06T20:29:45;8.15;;;5.88;;
9834;SDS011;4956;50.996;13.716;2023-04-06T20:33:05;6.50;;;5.35;;